sensor_id;sensor_type;location;lat;lon;timestamp;P1;durP1;ratioP1;P2;durP2;ratioP2
27740;SDS011;15134;48.768;9.184;2022-08-16T00:00:21;890.97;;;799.88;;
27740;SDS011;15134;48.768;9.184;2022-08-16T00:02:49;891.65;;;800.25;;
27740;SDS011;15134;48.768;9.184;2022-08-16T00:05:15;892.75;;;801.05;;
27740;SDS011;15134;48.768;9.184;2022-08-16T00:07:41;889.65;;;798.55;;
27740;SDS011;15134;48.768;9.184;2022-08-16T00:10:08;894.70;;;803.30;;
27740;SDS011;15134;48.768;9.184;2022-08-16T00:12:35;888.72;;;797.88;;
27740;SDS011;15134;48.768;9.184;2022-08-16T00:15:07;889.80;;;798.95;;
27740;SDS011;15134;48.768;9.184;2022-08-16T00:17:36;891.50;;;800.30;;
27740;SDS011;15134;48.768;9.184;2022-08-16T00:20:02;891.00;;;799.97;;
27740;SDS011;15134;48.768;9.184;2022-08-16T00:22:33;888.72;;;797.55;;
27740;SDS011;15134;48.768;9.184;2022-08-16T00:24:59;891.30;;;800.15;;
27740;SDS011;15134;48.768;9.184;2022-08-16T00:27:25;892.20;;;800.90;;
27740;SDS011;15134;48.768;9.184;2022-08-16T00:29:51;893.10;;;801.83;;
27740;SDS011;15134;48.768;9.184;2022-08-16T00:32:18;893.72;;;802.65;;
27740;SDS011;15134;48.768;9.184;2022-08-16T00:34:44;891.53;;;800.55;;
27740;SDS011;15134;48.768;9.184;2022-08-16T00:37:12;894.17;;;802.97;;
27740;SDS011;15134;48.768;9.184;2022-08-16T00:39:38;890.72;;;799.70;;
27740;SDS011;15134;48.768;9.184;2022-08-16T00:42:04;888.67;;;797.73;;
27740;SDS011;15134;48.768;9.184;2022-08-16T00:44:30;891.08;;;799.97;;
27740;SDS011;15134;48.768;9.184;2022-08-16T00:46:59;893.72;;;802.63;;
27740;SDS011;15134;48.768;9.184;2022-08-16T00:49:33;893.35;;;802.35;;
27740;SDS011;15134;48.768;9.184;2022-08-16T00:51:59;888.63;;;797.75;;
27740;SDS011;15134;48.768;9.184;2022-08-16T00:54:26;890.05;;;799.08;;
27740;SDS011;15134;48.768;9.184;2022-08-16T00:56:55;888.83;;;798.03;;
27740;SDS011;15134;48.768;9.184;2022-08-16T00:59:23;884.30;;;793.78;;
27740;SDS011;15134;48.768;9.184;2022-08-16T01:01:51;887.05;;;796.13;;
27740;SDS011;15134;48.768;9.184;2022-08-16T01:04:20;882.97;;;792.07;;
27740;SDS011;15134;48.768;9.184;2022-08-16T01:06:48;888.77;;;797.83;;
27740;SDS011;15134;48.768;9.184;2022-08-16T01:09:15;890.72;;;799.67;;
27740;SDS011;15134;48.768;9.184;2022-08-16T01:11:42;888.50;;;797.40;;
27740;SDS011;15134;48.768;9.184;2022-08-16T01:14:20;883.53;;;792.70;;
27740;SDS011;15134;48.768;9.184;2022-08-16T01:16:49;892.38;;;801.08;;
27740;SDS011;15134;48.768;9.184;2022-08-16T01:19:19;892.40;;;801.13;;
27740;SDS011;15134;48.768;9.184;2022-08-16T01:21:55;891.13;;;799.90;;
27740;SDS011;15134;48.768;9.184;2022-08-16T01:24:38;887.80;;;796.60;;
27740;SDS011;15134;48.768;9.184;2022-08-16T01:27:14;886.50;;;795.57;;
27740;SDS011;15134;48.768;9.184;2022-08-16T01:29:55;885.08;;;794.03;;
27740;SDS011;15134;48.768;9.184;2022-08-16T01:32:28;886.95;;;795.88;;
27740;SDS011;15134;48.768;9.184;2022-08-16T01:34:56;883.15;;;792.25;;
27740;SDS011;15134;48.768;9.184;2022-08-16T01:37:24;885.75;;;794.72;;
27740;SDS011;15134;48.768;9.184;2022-08-16T01:39:50;887.92;;;796.97;;
27740;SDS011;15134;48.768;9.184;2022-08-16T01:42:15;882.75;;;791.78;;
27740;SDS011;15134;48.768;9.184;2022-08-16T01:44:41;882.13;;;791.33;;
27740;SDS011;15134;48.768;9.184;2022-08-16T01:47:07;887.30;;;796.33;;
27740;SDS011;15134;48.768;9.184;2022-08-16T01:49:35;885.78;;;794.90;;
27740;SDS011;15134;48.768;9.184;2022-08-16T01:52:08;886.13;;;795.07;;
27740;SDS011;15134;48.768;9.184;2022-08-16T01:55:01;887.00;;;795.92;;
27740;SDS011;15134;48.768;9.184;2022-08-16T01:57:28;885.38;;;794.33;;
27740;SDS011;15134;48.768;9.184;2022-08-16T01:59:54;883.05;;;792.17;;
27740;SDS011;15134;48.768;9.184;2022-08-16T02:02:20;888.80;;;797.53;;
27740;SDS011;15134;48.768;9.184;2022-08-16T02:04:49;884.17;;;793.27;;
27740;SDS011;15134;48.768;9.184;2022-08-16T02:07:16;883.92;;;793.03;;
27740;SDS011;15134;48.768;9.184;2022-08-16T02:09:44;883.05;;;792.17;;
27740;SDS011;15134;48.768;9.184;2022-08-16T02:12:11;888.40;;;797.17;;
27740;SDS011;15134;48.768;9.184;2022-08-16T02:14:38;887.63;;;796.47;;
27740;SDS011;15134;48.768;9.184;2022-08-16T02:17:04;883.78;;;792.90;;
27740;SDS011;15134;48.768;9.184;2022-08-16T02:19:34;885.88;;;794.42;;
27740;SDS011;15134;48.768;9.184;2022-08-16T02:22:02;884.07;;;792.87;;
27740;SDS011;15134;48.768;9.184;2022-08-16T02:24:29;882.50;;;791.60;;
27740;SDS011;15134;48.768;9.184;2022-08-16T02:26:55;885.50;;;794.30;;
27740;SDS011;15134;48.768;9.184;2022-08-16T02:29:22;881.75;;;790.83;;
27740;SDS011;15134;48.768;9.184;2022-08-16T02:31:49;888.13;;;797.03;;
27740;SDS011;15134;48.768;9.184;2022-08-16T02:34:17;887.60;;;796.55;;
27740;SDS011;15134;48.768;9.184;2022-08-16T02:36:45;887.45;;;796.22;;
27740;SDS011;15134;48.768;9.184;2022-08-16T02:39:12;885.67;;;794.83;;
27740;SDS011;15134;48.768;9.184;2022-08-16T02:41:40;882.10;;;791.60;;
27740;SDS011;15134;48.768;9.184;2022-08-16T02:44:10;887.78;;;796.97;;
27740;SDS011;15134;48.768;9.184;2022-08-16T02:46:38;885.92;;;795.08;;
27740;SDS011;15134;48.768;9.184;2022-08-16T02:49:05;883.97;;;793.20;;
27740;SDS011;15134;48.768;9.184;2022-08-16T02:51:31;892.92;;;801.53;;
27740;SDS011;15134;48.768;9.184;2022-08-16T02:53:59;885.08;;;794.28;;
27740;SDS011;15134;48.768;9.184;2022-08-16T02:56:26;894.80;;;803.37;;
27740;SDS011;15134;48.768;9.184;2022-08-16T02:58:53;890.03;;;798.83;;
27740;SDS011;15134;48.768;9.184;2022-08-16T03:01:21;893.25;;;801.72;;
27740;SDS011;15134;48.768;9.184;2022-08-16T03:03:50;888.53;;;797.33;;
27740;SDS011;15134;48.768;9.184;2022-08-16T03:06:19;892.47;;;801.10;;
27740;SDS011;15134;48.768;9.184;2022-08-16T03:08:48;886.33;;;795.22;;
27740;SDS011;15134;48.768;9.184;2022-08-16T03:11:15;887.15;;;796.13;;
27740;SDS011;15134;48.768;9.184;2022-08-16T03:13:43;883.13;;;792.10;;
27740;SDS011;15134;48.768;9.184;2022-08-16T03:16:13;882.78;;;791.85;;
27740;SDS011;15134;48.768;9.184;2022-08-16T03:18:39;887.38;;;796.20;;
27740;SDS011;15134;48.768;9.184;2022-08-16T03:21:08;885.57;;;794.43;;
27740;SDS011;15134;48.768;9.184;2022-08-16T03:23:34;882.75;;;791.58;;
27740;SDS011;15134;48.768;9.184;2022-08-16T03:26:00;882.15;;;791.08;;
27740;SDS011;15134;48.768;9.184;2022-08-16T03:28:26;888.67;;;797.65;;
27740;SDS011;15134;48.768;9.184;2022-08-16T03:30:52;882.42;;;791.45;;
27740;SDS011;15134;48.768;9.184;2022-08-16T03:33:19;883.80;;;792.95;;
27740;SDS011;15134;48.768;9.184;2022-08-16T03:35:54;884.28;;;793.20;;
27740;SDS011;15134;48.768;9.184;2022-08-16T03:38:31;889.08;;;797.75;;
27740;SDS011;15134;48.768;9.184;2022-08-16T03:41:01;889.80;;;798.63;;
27740;SDS011;15134;48.768;9.184;2022-08-16T03:43:29;884.15;;;793.30;;
27740;SDS011;15134;48.768;9.184;2022-08-16T03:45:56;886.33;;;795.42;;
27740;SDS011;15134;48.768;9.184;2022-08-16T03:48:28;888.20;;;797.07;;
27740;SDS011;15134;48.768;9.184;2022-08-16T03:50:58;884.38;;;793.08;;
27740;SDS011;15134;48.768;9.184;2022-08-16T03:53:25;884.03;;;793.07;;
27740;SDS011;15134;48.768;9.184;2022-08-16T03:55:50;887.83;;;796.50;;
27740;SDS011;15134;48.768;9.184;2022-08-16T03:58:17;878.22;;;787.42;;
27740;SDS011;15134;48.768;9.184;2022-08-16T04:00:42;883.10;;;791.90;;
27740;SDS011;15134;48.768;9.184;2022-08-16T04:03:14;882.80;;;791.87;;
27740;SDS011;15134;48.768;9.184;2022-08-16T04:05:42;886.42;;;795.28;;
27740;SDS011;15134;48.768;9.184;2022-08-16T04:08:11;885.22;;;794.17;;
27740;SDS011;15134;48.768;9.184;2022-08-16T04:10:39;877.15;;;786.35;;
27740;SDS011;15134;48.768;9.184;2022-08-16T04:13:05;881.70;;;790.70;;
27740;SDS011;15134;48.768;9.184;2022-08-16T04:15:32;889.22;;;797.78;;
27740;SDS011;15134;48.768;9.184;2022-08-16T04:18:13;886.97;;;795.67;;
27740;SDS011;15134;48.768;9.184;2022-08-16T04:20:40;885.03;;;793.83;;
27740;SDS011;15134;48.768;9.184;2022-08-16T04:23:06;881.08;;;789.97;;
27740;SDS011;15134;48.768;9.184;2022-08-16T04:25:34;885.40;;;794.22;;
27740;SDS011;15134;48.768;9.184;2022-08-16T04:28:02;880.70;;;789.65;;
27740;SDS011;15134;48.768;9.184;2022-08-16T04:30:29;880.75;;;789.90;;
27740;SDS011;15134;48.768;9.184;2022-08-16T04:32:56;880.80;;;789.90;;
27740;SDS011;15134;48.768;9.184;2022-08-16T04:35:23;882.67;;;791.37;;
27740;SDS011;15134;48.768;9.184;2022-08-16T04:37:50;883.45;;;792.45;;
27740;SDS011;15134;48.768;9.184;2022-08-16T04:40:23;883.95;;;792.10;;
27740;SDS011;15134;48.768;9.184;2022-08-16T04:42:52;885.53;;;793.90;;
27740;SDS011;15134;48.768;9.184;2022-08-16T04:45:21;886.35;;;795.08;;
27740;SDS011;15134;48.768;9.184;2022-08-16T04:47:48;887.38;;;795.83;;
27740;SDS011;15134;48.768;9.184;2022-08-16T04:50:21;885.80;;;794.78;;
27740;SDS011;15134;48.768;9.184;2022-08-16T04:52:56;889.70;;;798.30;;
27740;SDS011;15134;48.768;9.184;2022-08-16T04:55:24;883.33;;;792.33;;
27740;SDS011;15134;48.768;9.184;2022-08-16T04:57:53;887.90;;;796.60;;
27740;SDS011;15134;48.768;9.184;2022-08-16T05:00:23;883.72;;;792.75;;
27740;SDS011;15134;48.768;9.184;2022-08-16T05:02:52;884.85;;;793.72;;
27740;SDS011;15134;48.768;9.184;2022-08-16T05:05:19;885.75;;;794.60;;
27740;SDS011;15134;48.768;9.184;2022-08-16T05:07:47;887.30;;;796.15;;
27740;SDS011;15134;48.768;9.184;2022-08-16T05:10:14;888.85;;;797.47;;
27740;SDS011;15134;48.768;9.184;2022-08-16T05:12:40;886.70;;;795.03;;
27740;SDS011;15134;48.768;9.184;2022-08-16T05:15:07;895.45;;;803.58;;
27740;SDS011;15134;48.768;9.184;2022-08-16T05:17:36;892.65;;;801.38;;
27740;SDS011;15134;48.768;9.184;2022-08-16T05:20:07;888.65;;;796.90;;
27740;SDS011;15134;48.768;9.184;2022-08-16T05:22:38;884.85;;;793.45;;
27740;SDS011;15134;48.768;9.184;2022-08-16T05:25:06;890.08;;;798.83;;
27740;SDS011;15134;48.768;9.184;2022-08-16T05:27:34;889.88;;;798.63;;
27740;SDS011;15134;48.768;9.184;2022-08-16T05:30:01;892.22;;;800.85;;
27740;SDS011;15134;48.768;9.184;2022-08-16T05:32:31;896.25;;;804.63;;
27740;SDS011;15134;48.768;9.184;2022-08-16T05:34:57;892.60;;;800.95;;
27740;SDS011;15134;48.768;9.184;2022-08-16T05:37:23;893.22;;;801.45;;
27740;SDS011;15134;48.768;9.184;2022-08-16T05:39:49;892.20;;;800.50;;
27740;SDS011;15134;48.768;9.184;2022-08-16T05:42:16;892.38;;;800.05;;
27740;SDS011;15134;48.768;9.184;2022-08-16T05:44:42;892.22;;;800.20;;
27740;SDS011;15134;48.768;9.184;2022-08-16T05:47:10;893.08;;;801.50;;
27740;SDS011;15134;48.768;9.184;2022-08-16T05:49:35;892.90;;;801.17;;
27740;SDS011;15134;48.768;9.184;2022-08-16T05:52:01;900.33;;;808.50;;
27740;SDS011;15134;48.768;9.184;2022-08-16T05:54:28;892.38;;;800.90;;
27740;SDS011;15134;48.768;9.184;2022-08-16T05:56:56;894.75;;;802.90;;
27740;SDS011;15134;48.768;9.184;2022-08-16T05:59:23;899.13;;;806.20;;
27740;SDS011;15134;48.768;9.184;2022-08-16T06:01:50;902.33;;;809.53;;
27740;SDS011;15134;48.768;9.184;2022-08-16T06:04:20;901.17;;;809.35;;
27740;SDS011;15134;48.768;9.184;2022-08-16T06:06:48;904.35;;;812.33;;
27740;SDS011;15134;48.768;9.184;2022-08-16T06:09:15;912.42;;;820.65;;
27740;SDS011;15134;48.768;9.184;2022-08-16T06:11:41;906.70;;;814.47;;
27740;SDS011;15134;48.768;9.184;2022-08-16T06:14:08;909.53;;;817.30;;
27740;SDS011;15134;48.768;9.184;2022-08-16T06:16:37;908.63;;;816.45;;
27740;SDS011;15134;48.768;9.184;2022-08-16T06:19:04;908.10;;;816.03;;
27740;SDS011;15134;48.768;9.184;2022-08-16T06:21:31;915.50;;;823.03;;
27740;SDS011;15134;48.768;9.184;2022-08-16T06:24:00;919.33;;;826.53;;
27740;SDS011;15134;48.768;9.184;2022-08-16T06:26:29;924.70;;;831.92;;
27740;SDS011;15134;48.768;9.184;2022-08-16T06:28:54;945.05;;;851.17;;
27740;SDS011;15134;48.768;9.184;2022-08-16T06:31:25;932.50;;;839.37;;
27740;SDS011;15134;48.768;9.184;2022-08-16T06:33:53;939.03;;;845.67;;
27740;SDS011;15134;48.768;9.184;2022-08-16T06:36:20;946.53;;;852.97;;
27740;SDS011;15134;48.768;9.184;2022-08-16T06:39:03;952.70;;;859.08;;
27740;SDS011;15134;48.768;9.184;2022-08-16T06:41:48;970.65;;;876.35;;
27740;SDS011;15134;48.768;9.184;2022-08-16T06:44:36;974.90;;;880.72;;
27740;SDS011;15134;48.768;9.184;2022-08-16T06:47:05;997.10;;;902.13;;
27740;SDS011;15134;48.768;9.184;2022-08-16T06:49:31;1011.40;;;915.97;;
27740;SDS011;15134;48.768;9.184;2022-08-16T06:51:58;1033.35;;;937.33;;
27740;SDS011;15134;48.768;9.184;2022-08-16T06:54:26;6.60;;;3.20;;
27740;SDS011;15134;48.768;9.184;2022-08-16T06:56:52;10.10;;;3.20;;
27740;SDS011;15134;48.768;9.184;2022-08-16T06:59:19;7.47;;;3.20;;
27740;SDS011;15134;48.768;9.184;2022-08-16T07:01:48;47.47;;;25.23;;
27740;SDS011;15134;48.768;9.184;2022-08-16T07:04:15;6.20;;;3.08;;
27740;SDS011;15134;48.768;9.184;2022-08-16T07:06:41;10.00;;;6.72;;
27740;SDS011;15134;48.768;9.184;2022-08-16T07:09:12;6.93;;;4.45;;
27740;SDS011;15134;48.768;9.184;2022-08-16T07:11:42;8.60;;;5.70;;
27740;SDS011;15134;48.768;9.184;2022-08-16T07:14:09;44.28;;;32.35;;
27740;SDS011;15134;48.768;9.184;2022-08-16T07:16:42;7.38;;;4.28;;
27740;SDS011;15134;48.768;9.184;2022-08-16T07:19:07;5.20;;;3.10;;
27740;SDS011;15134;48.768;9.184;2022-08-16T07:21:36;5.90;;;2.83;;
27740;SDS011;15134;48.768;9.184;2022-08-16T07:24:04;5.90;;;2.83;;
27740;SDS011;15134;48.768;9.184;2022-08-16T07:26:32;4.80;;;2.65;;
27740;SDS011;15134;48.768;9.184;2022-08-16T07:28:59;12.45;;;6.55;;
27740;SDS011;15134;48.768;9.184;2022-08-16T07:31:25;7.03;;;2.65;;
27740;SDS011;15134;48.768;9.184;2022-08-16T07:33:51;5.53;;;2.92;;
27740;SDS011;15134;48.768;9.184;2022-08-16T07:36:18;6.78;;;4.65;;
27740;SDS011;15134;48.768;9.184;2022-08-16T07:38:47;5.18;;;2.50;;
27740;SDS011;15134;48.768;9.184;2022-08-16T07:41:14;7.03;;;2.53;;
27740;SDS011;15134;48.768;9.184;2022-08-16T07:43:44;3.63;;;1.92;;
27740;SDS011;15134;48.768;9.184;2022-08-16T07:46:12;5.35;;;2.65;;
27740;SDS011;15134;48.768;9.184;2022-08-16T07:48:38;6.10;;;2.70;;
27740;SDS011;15134;48.768;9.184;2022-08-16T07:51:05;4.55;;;2.28;;
27740;SDS011;15134;48.768;9.184;2022-08-16T07:53:32;6.90;;;2.45;;
27740;SDS011;15134;48.768;9.184;2022-08-16T07:56:00;5.20;;;2.30;;
27740;SDS011;15134;48.768;9.184;2022-08-16T07:58:32;4.70;;;2.35;;
27740;SDS011;15134;48.768;9.184;2022-08-16T08:00:58;6.72;;;2.67;;
27740;SDS011;15134;48.768;9.184;2022-08-16T08:03:26;5.35;;;2.45;;
27740;SDS011;15134;48.768;9.184;2022-08-16T08:05:54;7.05;;;5.38;;
27740;SDS011;15134;48.768;9.184;2022-08-16T08:08:20;5.20;;;2.92;;
27740;SDS011;15134;48.768;9.184;2022-08-16T08:10:46;6.03;;;2.50;;
27740;SDS011;15134;48.768;9.184;2022-08-16T08:13:11;5.22;;;2.35;;
27740;SDS011;15134;48.768;9.184;2022-08-16T08:15:39;6.78;;;3.05;;
27740;SDS011;15134;48.768;9.184;2022-08-16T08:18:04;4.60;;;2.50;;
27740;SDS011;15134;48.768;9.184;2022-08-16T08:20:32;5.28;;;2.50;;
27740;SDS011;15134;48.768;9.184;2022-08-16T08:23:00;5.65;;;2.42;;
27740;SDS011;15134;48.768;9.184;2022-08-16T08:25:28;5.93;;;2.45;;
27740;SDS011;15134;48.768;9.184;2022-08-16T08:27:54;5.18;;;2.45;;
27740;SDS011;15134;48.768;9.184;2022-08-16T08:30:20;5.30;;;3.05;;
27740;SDS011;15134;48.768;9.184;2022-08-16T08:32:47;5.82;;;3.15;;
27740;SDS011;15134;48.768;9.184;2022-08-16T08:35:15;6.47;;;3.40;;
27740;SDS011;15134;48.768;9.184;2022-08-16T08:37:41;9.32;;;3.72;;
27740;SDS011;15134;48.768;9.184;2022-08-16T08:40:08;6.75;;;3.72;;
27740;SDS011;15134;48.768;9.184;2022-08-16T08:42:35;6.60;;;3.20;;
27740;SDS011;15134;48.768;9.184;2022-08-16T08:45:03;6.38;;;3.17;;
27740;SDS011;15134;48.768;9.184;2022-08-16T08:47:29;7.68;;;3.65;;
27740;SDS011;15134;48.768;9.184;2022-08-16T08:49:56;9.95;;;4.03;;
27740;SDS011;15134;48.768;9.184;2022-08-16T08:52:24;6.43;;;3.90;;
27740;SDS011;15134;48.768;9.184;2022-08-16T08:54:50;8.57;;;3.92;;
27740;SDS011;15134;48.768;9.184;2022-08-16T09:00:15;7.85;;;4.03;;
27740;SDS011;15134;48.768;9.184;2022-08-16T09:02:43;6.38;;;4.03;;
27740;SDS011;15134;48.768;9.184;2022-08-16T09:05:11;7.32;;;3.80;;
27740;SDS011;15134;48.768;9.184;2022-08-16T09:07:39;5.60;;;3.67;;
27740;SDS011;15134;48.768;9.184;2022-08-16T09:10:06;6.05;;;3.22;;
27740;SDS011;15134;48.768;9.184;2022-08-16T09:12:35;8.23;;;3.53;;
27740;SDS011;15134;48.768;9.184;2022-08-16T09:15:07;6.47;;;3.00;;
27740;SDS011;15134;48.768;9.184;2022-08-16T09:17:34;8.38;;;3.55;;
27740;SDS011;15134;48.768;9.184;2022-08-16T09:20:01;7.47;;;3.53;;
27740;SDS011;15134;48.768;9.184;2022-08-16T09:22:27;5.47;;;3.17;;
27740;SDS011;15134;48.768;9.184;2022-08-16T09:24:54;7.38;;;3.50;;
27740;SDS011;15134;48.768;9.184;2022-08-16T09:27:23;7.25;;;3.92;;
27740;SDS011;15134;48.768;9.184;2022-08-16T09:29:50;5.85;;;3.97;;
27740;SDS011;15134;48.768;9.184;2022-08-16T09:32:16;5.07;;;3.70;;
27740;SDS011;15134;48.768;9.184;2022-08-16T09:34:42;9.48;;;3.88;;
27740;SDS011;15134;48.768;9.184;2022-08-16T09:37:09;8.35;;;4.00;;
27740;SDS011;15134;48.768;9.184;2022-08-16T09:42:00;5.38;;;3.45;;
27740;SDS011;15134;48.768;9.184;2022-08-16T09:44:27;6.80;;;3.40;;
27740;SDS011;15134;48.768;9.184;2022-08-16T09:46:54;6.07;;;3.42;;
27740;SDS011;15134;48.768;9.184;2022-08-16T09:49:21;5.10;;;3.20;;
27740;SDS011;15134;48.768;9.184;2022-08-16T09:51:48;6.18;;;3.60;;
27740;SDS011;15134;48.768;9.184;2022-08-16T09:54:18;8.25;;;4.07;;
27740;SDS011;15134;48.768;9.184;2022-08-16T09:56:44;12.25;;;3.45;;
27740;SDS011;15134;48.768;9.184;2022-08-16T09:59:10;7.47;;;3.63;;
27740;SDS011;15134;48.768;9.184;2022-08-16T10:01:39;6.32;;;3.53;;
27740;SDS011;15134;48.768;9.184;2022-08-16T10:04:08;7.10;;;3.65;;
27740;SDS011;15134;48.768;9.184;2022-08-16T10:06:35;8.43;;;4.28;;
27740;SDS011;15134;48.768;9.184;2022-08-16T10:09:05;6.75;;;4.30;;
27740;SDS011;15134;48.768;9.184;2022-08-16T10:11:35;11.90;;;5.40;;
27740;SDS011;15134;48.768;9.184;2022-08-16T10:14:21;9.73;;;5.88;;
27740;SDS011;15134;48.768;9.184;2022-08-16T10:16:47;9.02;;;4.53;;
27740;SDS011;15134;48.768;9.184;2022-08-16T10:19:14;8.68;;;4.22;;
27740;SDS011;15134;48.768;9.184;2022-08-16T10:21:41;7.35;;;4.65;;
27740;SDS011;15134;48.768;9.184;2022-08-16T10:24:08;7.13;;;4.00;;
27740;SDS011;15134;48.768;9.184;2022-08-16T10:26:35;8.57;;;5.07;;
27740;SDS011;15134;48.768;9.184;2022-08-16T10:29:01;6.63;;;4.30;;
27740;SDS011;15134;48.768;9.184;2022-08-16T10:31:28;9.90;;;4.45;;
27740;SDS011;15134;48.768;9.184;2022-08-16T10:33:54;6.93;;;4.25;;
27740;SDS011;15134;48.768;9.184;2022-08-16T10:36:20;10.00;;;4.63;;
27740;SDS011;15134;48.768;9.184;2022-08-16T10:38:45;6.88;;;4.63;;
27740;SDS011;15134;48.768;9.184;2022-08-16T10:41:11;6.93;;;4.50;;
27740;SDS011;15134;48.768;9.184;2022-08-16T10:43:38;6.57;;;4.40;;
27740;SDS011;15134;48.768;9.184;2022-08-16T10:46:07;6.95;;;4.90;;
27740;SDS011;15134;48.768;9.184;2022-08-16T10:48:36;6.30;;;3.95;;
27740;SDS011;15134;48.768;9.184;2022-08-16T10:51:02;7.28;;;4.93;;
27740;SDS011;15134;48.768;9.184;2022-08-16T10:53:29;9.38;;;5.55;;
27740;SDS011;15134;48.768;9.184;2022-08-16T10:55:56;9.30;;;4.28;;
27740;SDS011;15134;48.768;9.184;2022-08-16T10:58:25;8.40;;;4.60;;
27740;SDS011;15134;48.768;9.184;2022-08-16T11:03:17;6.57;;;4.07;;
27740;SDS011;15134;48.768;9.184;2022-08-16T11:05:44;8.07;;;4.32;;
27740;SDS011;15134;48.768;9.184;2022-08-16T11:08:12;6.25;;;4.05;;
27740;SDS011;15134;48.768;9.184;2022-08-16T11:10:40;8.23;;;3.90;;
27740;SDS011;15134;48.768;9.184;2022-08-16T11:13:08;12.18;;;7.45;;
27740;SDS011;15134;48.768;9.184;2022-08-16T11:15:35;7.00;;;4.65;;
27740;SDS011;15134;48.768;9.184;2022-08-16T11:18:02;7.18;;;5.07;;
27740;SDS011;15134;48.768;9.184;2022-08-16T11:20:29;7.07;;;4.90;;
27740;SDS011;15134;48.768;9.184;2022-08-16T11:22:54;9.30;;;7.38;;
27740;SDS011;15134;48.768;9.184;2022-08-16T11:25:21;17.90;;;10.80;;
27740;SDS011;15134;48.768;9.184;2022-08-16T11:27:49;12.00;;;8.20;;
27740;SDS011;15134;48.768;9.184;2022-08-16T11:30:16;9.40;;;4.88;;
27740;SDS011;15134;48.768;9.184;2022-08-16T11:32:42;9.27;;;3.80;;
27740;SDS011;15134;48.768;9.184;2022-08-16T11:35:15;7.95;;;3.90;;
27740;SDS011;15134;48.768;9.184;2022-08-16T11:37:44;8.43;;;4.13;;
27740;SDS011;15134;48.768;9.184;2022-08-16T11:40:15;6.35;;;4.03;;
27740;SDS011;15134;48.768;9.184;2022-08-16T11:42:41;7.05;;;3.60;;
27740;SDS011;15134;48.768;9.184;2022-08-16T11:45:07;7.97;;;3.67;;
27740;SDS011;15134;48.768;9.184;2022-08-16T11:47:34;6.93;;;3.72;;
27740;SDS011;15134;48.768;9.184;2022-08-16T11:49:59;7.50;;;4.15;;
27740;SDS011;15134;48.768;9.184;2022-08-16T11:52:25;20.05;;;14.82;;
27740;SDS011;15134;48.768;9.184;2022-08-16T11:54:51;13.68;;;5.65;;
27740;SDS011;15134;48.768;9.184;2022-08-16T11:57:17;6.75;;;3.80;;
27740;SDS011;15134;48.768;9.184;2022-08-16T11:59:43;6.72;;;4.15;;
27740;SDS011;15134;48.768;9.184;2022-08-16T12:02:09;6.82;;;4.55;;
27740;SDS011;15134;48.768;9.184;2022-08-16T12:04:35;8.55;;;4.10;;
27740;SDS011;15134;48.768;9.184;2022-08-16T12:07:04;7.90;;;4.15;;
27740;SDS011;15134;48.768;9.184;2022-08-16T12:09:32;9.60;;;5.82;;
27740;SDS011;15134;48.768;9.184;2022-08-16T12:11:58;20.67;;;16.15;;
27740;SDS011;15134;48.768;9.184;2022-08-16T12:14:24;10.02;;;4.10;;
27740;SDS011;15134;48.768;9.184;2022-08-16T12:16:53;7.80;;;3.72;;
27740;SDS011;15134;48.768;9.184;2022-08-16T12:19:20;9.57;;;3.40;;
27740;SDS011;15134;48.768;9.184;2022-08-16T12:21:46;19.48;;;12.88;;
27740;SDS011;15134;48.768;9.184;2022-08-16T12:24:12;9.43;;;4.68;;
27740;SDS011;15134;48.768;9.184;2022-08-16T12:26:39;5.97;;;4.15;;
27740;SDS011;15134;48.768;9.184;2022-08-16T12:29:05;6.90;;;3.72;;
27740;SDS011;15134;48.768;9.184;2022-08-16T12:31:31;7.25;;;3.63;;
27740;SDS011;15134;48.768;9.184;2022-08-16T12:33:57;6.55;;;3.83;;
27740;SDS011;15134;48.768;9.184;2022-08-16T12:36:23;6.53;;;3.55;;
27740;SDS011;15134;48.768;9.184;2022-08-16T12:38:50;7.90;;;3.90;;
27740;SDS011;15134;48.768;9.184;2022-08-16T12:41:16;6.60;;;3.63;;
27740;SDS011;15134;48.768;9.184;2022-08-16T12:43:42;10.52;;;7.45;;
27740;SDS011;15134;48.768;9.184;2022-08-16T12:46:09;8.10;;;4.13;;
27740;SDS011;15134;48.768;9.184;2022-08-16T12:48:36;8.73;;;3.40;;
27740;SDS011;15134;48.768;9.184;2022-08-16T12:51:22;5.22;;;3.45;;
27740;SDS011;15134;48.768;9.184;2022-08-16T12:53:52;7.32;;;4.32;;
27740;SDS011;15134;48.768;9.184;2022-08-16T12:56:20;5.82;;;3.72;;
27740;SDS011;15134;48.768;9.184;2022-08-16T12:58:47;7.15;;;3.90;;
27740;SDS011;15134;48.768;9.184;2022-08-16T13:01:23;6.20;;;3.88;;
27740;SDS011;15134;48.768;9.184;2022-08-16T13:03:51;8.77;;;4.78;;
27740;SDS011;15134;48.768;9.184;2022-08-16T13:06:19;9.23;;;5.00;;
27740;SDS011;15134;48.768;9.184;2022-08-16T13:08:46;5.25;;;3.72;;
27740;SDS011;15134;48.768;9.184;2022-08-16T13:11:13;5.93;;;4.10;;
27740;SDS011;15134;48.768;9.184;2022-08-16T13:13:44;7.28;;;3.88;;
27740;SDS011;15134;48.768;9.184;2022-08-16T13:16:10;8.23;;;3.78;;
27740;SDS011;15134;48.768;9.184;2022-08-16T13:18:36;5.97;;;3.97;;
27740;SDS011;15134;48.768;9.184;2022-08-16T13:21:03;8.23;;;3.70;;
27740;SDS011;15134;48.768;9.184;2022-08-16T13:23:31;5.95;;;3.15;;
27740;SDS011;15134;48.768;9.184;2022-08-16T13:25:58;6.57;;;3.15;;
27740;SDS011;15134;48.768;9.184;2022-08-16T13:28:24;15.50;;;8.57;;
27740;SDS011;15134;48.768;9.184;2022-08-16T13:30:51;20.35;;;11.00;;
27740;SDS011;15134;48.768;9.184;2022-08-16T13:33:21;18.40;;;12.15;;
27740;SDS011;15134;48.768;9.184;2022-08-16T13:35:54;6.22;;;4.40;;
27740;SDS011;15134;48.768;9.184;2022-08-16T13:38:25;6.95;;;3.75;;
27740;SDS011;15134;48.768;9.184;2022-08-16T13:40:55;6.47;;;4.13;;
27740;SDS011;15134;48.768;9.184;2022-08-16T13:43:21;10.60;;;8.25;;
27740;SDS011;15134;48.768;9.184;2022-08-16T13:45:48;8.52;;;3.90;;
27740;SDS011;15134;48.768;9.184;2022-08-16T13:48:13;5.57;;;3.53;;
27740;SDS011;15134;48.768;9.184;2022-08-16T13:50:39;5.90;;;3.35;;
27740;SDS011;15134;48.768;9.184;2022-08-16T13:53:05;9.93;;;6.22;;
27740;SDS011;15134;48.768;9.184;2022-08-16T13:55:31;21.27;;;15.40;;
27740;SDS011;15134;48.768;9.184;2022-08-16T13:57:57;33.70;;;28.20;;
27740;SDS011;15134;48.768;9.184;2022-08-16T14:00:22;10.70;;;7.53;;
27740;SDS011;15134;48.768;9.184;2022-08-16T14:02:48;8.98;;;6.95;;
27740;SDS011;15134;48.768;9.184;2022-08-16T14:05:14;7.35;;;3.63;;
27740;SDS011;15134;48.768;9.184;2022-08-16T14:07:40;6.70;;;3.83;;
27740;SDS011;15134;48.768;9.184;2022-08-16T14:10:06;47.95;;;32.85;;
27740;SDS011;15134;48.768;9.184;2022-08-16T14:12:35;6.55;;;3.60;;
27740;SDS011;15134;48.768;9.184;2022-08-16T14:15:02;17.13;;;12.77;;
27740;SDS011;15134;48.768;9.184;2022-08-16T14:17:31;7.35;;;4.18;;
27740;SDS011;15134;48.768;9.184;2022-08-16T14:19:57;14.30;;;8.75;;
27740;SDS011;15134;48.768;9.184;2022-08-16T14:22:27;13.75;;;6.95;;
27740;SDS011;15134;48.768;9.184;2022-08-16T14:24:57;7.75;;;3.78;;
27740;SDS011;15134;48.768;9.184;2022-08-16T14:27:24;7.60;;;3.90;;
27740;SDS011;15134;48.768;9.184;2022-08-16T14:29:53;5.80;;;4.35;;
27740;SDS011;15134;48.768;9.184;2022-08-16T14:32:21;17.17;;;13.07;;